Kennedy — PB7633 — position and weather

sailwx.info

Track history (hours):
 
Tides and Currents Weather Stations Pressure Air Temp Water Temp Dewpoint Dewpoint Depression Visibility Wind Speed Wind Dir Waves Ship Positions

Kennedy

Last reported at 2015-Aug-27 12:03 UTC. Time now 2015-Aug-28 19:12 UTC.
Position N 39°06' E 001°25'.

Length 15 m.

Type: Sailing vessel. MMSI: 245144000.

Date/timePositionNaut miles runAvg speedWind from/ knotsBaromVisibWave heightAir tempDewpointWater temp
2015-Aug-27 12:03N 39°06' E 001°25'  
2015-Aug-22 14:06N 39°11' E 001°42'4 7.9
2015-Aug-22 13:33N 39°13' E 001°47'8 7.6
2015-Aug-22 12:32N 39°16' E 001°56'7 6.6
2015-Aug-22 11:29N 39°16' E 002°05'7 6.7
2015-Aug-22 10:27N 39°16' E 002°14'6 6.6
2015-Aug-22 09:31N 39°16' E 002°22'7 6.1
2015-Aug-22 08:27N 39°16' E 002°30'6 6.4
2015-Aug-22 07:28N 39°17' E 002°38'6 6.3
2015-Aug-22 06:33N 39°18' E 002°46'6 6.4
2015-Aug-22 05:33N 39°19' E 002°54'  
2015-Aug-19 07:08N 39°20' E 002°59'0 0.0
2015-Aug-19 06:32N 39°20' E 002°59'0 0.0
2015-Aug-19 05:32N 39°20' E 002°59'0 0.0
2015-Aug-19 04:32N 39°20' E 002°59'0 0.0
2015-Aug-19 03:14N 39°20' E 002°59'0 0.0
2015-Aug-19 02:32N 39°20' E 002°59'0 0.0
2015-Aug-19 01:32N 39°20' E 002°59'0 0.0
2015-Aug-19 00:32N 39°20' E 002°59'0 0.0
2015-Aug-18 23:32N 39°20' E 002°59'0 0.0
2015-Aug-18 22:32N 39°20' E 002°59'0 0.0
2015-Aug-18 21:26N 39°20' E 002°59'0 0.0
2015-Aug-18 20:32N 39°20' E 002°59'2 2.2
2015-Aug-18 19:31N 39°18' E 003°00'  
Track history (hours):
 
Tides and Currents Weather Stations Pressure Air Temp Water Temp Dewpoint Dewpoint Depression Visibility Wind Speed Wind Dir Waves Ship Positions

Kennedy

Last reported at 2015-Aug-27 12:03 UTC. Time now 2015-Aug-28 19:12 UTC.
Position N 39°06' E 001°25'.

Length 15 m.

Type: Sailing vessel. MMSI: 245144000.

Date/timePositionNaut miles runAvg speedWind from/ knotsBaromVisibWave heightAir tempDewpointWater temp
2015-Aug-27 12:03N 39°06' E 001°25'  
2015-Aug-22 14:06N 39°11' E 001°42'4 7.9
2015-Aug-22 13:33N 39°13' E 001°47'8 7.6
2015-Aug-22 12:32N 39°16' E 001°56'7 6.6
2015-Aug-22 11:29N 39°16' E 002°05'7 6.7
2015-Aug-22 10:27N 39°16' E 002°14'6 6.6
2015-Aug-22 09:31N 39°16' E 002°22'7 6.1
2015-Aug-22 08:27N 39°16' E 002°30'6 6.4
2015-Aug-22 07:28N 39°17' E 002°38'6 6.3
2015-Aug-22 06:33N 39°18' E 002°46'6 6.4
2015-Aug-22 05:33N 39°19' E 002°54'  
2015-Aug-19 07:08N 39°20' E 002°59'0 0.0
2015-Aug-19 06:32N 39°20' E 002°59'0 0.0
2015-Aug-19 05:32N 39°20' E 002°59'0 0.0
2015-Aug-19 04:32N 39°20' E 002°59'0 0.0
2015-Aug-19 03:14N 39°20' E 002°59'0 0.0
2015-Aug-19 02:32N 39°20' E 002°59'0 0.0
2015-Aug-19 01:32N 39°20' E 002°59'0 0.0
2015-Aug-19 00:32N 39°20' E 002°59'0 0.0
2015-Aug-18 23:32N 39°20' E 002°59'0 0.0
2015-Aug-18 22:32N 39°20' E 002°59'0 0.0
2015-Aug-18 21:26N 39°20' E 002°59'0 0.0
2015-Aug-18 20:32N 39°20' E 002°59'2 2.2
2015-Aug-18 19:31N 39°18' E 003°00'  

Dump ship's entire track history